createdAt,value
2018-04-26T09:21:26.838Z,65.65
2018-04-26T09:22:11.734Z,64.56
2018-04-26T09:25:19.009Z,68.61
2018-04-26T09:25:43.596Z,69.66
2018-04-26T09:26:43.600Z,69.62
2018-04-26T09:27:43.604Z,69.66
2018-04-26T09:29:04.668Z,69.85
2018-04-26T09:29:43.613Z,69.85
2018-04-26T09:30:43.617Z,69.72
2018-04-26T09:31:43.619Z,71.72
2018-04-26T09:32:43.626Z,70.81
2018-04-26T09:41:30.194Z,69.85
2018-04-26T09:42:22.263Z,69.24
2018-04-26T09:57:34.207Z,66.60
2018-04-26T09:58:06.559Z,68.32
2018-04-26T09:59:06.559Z,70.61
2018-04-26T10:00:06.563Z,70.14
2018-04-26T10:01:06.569Z,68.16
2018-04-26T10:02:06.573Z,66.41
2018-04-26T10:04:53.331Z,63.35
2018-04-26T10:05:38.148Z,64.02
2018-04-26T10:06:38.156Z,63.51
2018-04-26T10:07:38.154Z,64.66
2018-04-26T10:15:09.902Z,61.51
2018-04-26T10:15:44.774Z,63.45
2018-04-26T10:16:44.778Z,62.43
2018-04-26T10:21:11.433Z,64.02
2018-04-26T10:21:48.091Z,63.70
2018-04-26T10:29:16.807Z,69.72
2018-04-26T10:29:54.722Z,68.61
2018-04-26T10:30:54.699Z,66.61
2018-04-26T10:31:54.708Z,63.76
2018-04-26T10:32:56.319Z,62.17
2018-04-26T10:33:54.718Z,59.94
2018-04-26T10:34:54.719Z,60.35
2018-04-26T10:35:54.724Z,64.28
2018-04-26T10:36:54.728Z,65.81
2018-04-26T10:45:54.159Z,63.54
2018-04-26T10:46:33.112Z,64.69
2018-04-26T10:47:33.112Z,66.00
2018-04-26T11:05:33.717Z,53.36
2018-04-26T11:06:22.498Z,53.94
2018-04-26T11:07:22.508Z,53.67
2018-04-26T11:08:22.513Z,54.99
2018-04-26T11:11:12.826Z,58.05
2018-04-26T11:11:54.277Z,56.70
2018-04-26T11:12:54.284Z,54.68
2018-04-26T11:13:54.332Z,54.23
2018-04-26T11:14:54.302Z,53.85
2018-04-26T11:15:54.303Z,53.79
2018-04-26T11:16:55.076Z,56.22
2018-04-26T11:17:54.338Z,56.05
2018-04-26T11:18:57.791Z,54.78
2018-04-26T11:19:54.344Z,57.21
2018-04-26T11:20:54.348Z,55.60
2018-04-26T11:21:54.363Z,53.91
2018-04-26T11:22:54.375Z,55.04
2018-04-26T11:23:54.379Z,57.70
2018-04-26T11:28:12.784Z,58.15
2018-04-26T11:32:25.092Z,63.19
2018-04-26T11:33:00.979Z,63.76
2018-04-26T12:01:32.300Z,54.90
2018-04-26T12:02:30.693Z,54.46
2018-04-26T12:03:30.691Z,57.06
2018-04-26T12:04:30.696Z,56.76
2018-04-26T12:07:02.464Z,59.90
2018-04-26T12:08:02.360Z,59.65
2018-04-26T12:09:02.368Z,59.55
2018-04-26T12:10:02.432Z,60.80
2018-04-26T12:17:09.329Z,64.28
2018-04-26T12:18:08.980Z,64.56
2018-04-26T12:19:08.980Z,64.85
2018-04-26T12:20:08.990Z,65.33
2018-04-26T12:50:18.956Z,78.10
2018-04-26T12:51:10.337Z,77.19
2018-04-26T12:52:10.334Z,77.47
2018-04-26T12:53:10.866Z,76.08
2018-04-26T12:54:10.337Z,75.32
2018-04-26T12:55:10.344Z,74.88
2018-04-26T12:56:32.440Z,73.35
2018-04-26T12:57:10.351Z,73.88
2018-04-26T12:58:10.348Z,75.42
2018-04-26T12:59:10.354Z,74.65
2018-04-26T13:00:10.351Z,75.42
